UTSHUNTSVILLE MUNI
METARs for airports near UTS, sorted by distance:
N 0 nm 362' KUTS 221753Z 00000KT 10SM CLR 19/07 A3025
S 25 nm 244' KCXO 221753Z VRB04KT 10SM CLR 20/07 A3025
N 34 nm 348' KDKR 221815Z 22003KT 10SM CLR 19/07 A3024
W 38 nm 366' KCFD 221815Z 14008KT 10SM CLR 20/07 A3026
W 41 nm 320' KCLL 221753Z 14007KT 10SM CLR 21/07 A3024
S 41 nm 152' KDWH 221753Z 11008G14KT 10SM CLR 21/06 A3024
S 47 nm 95' KIAH 221753Z 07009KT 10SM FEW045 SCT180 BKN250 20/06 A3024
NE 52 nm 295' KLFK 221753Z VRB04KT 10SM CLR 19/06 A3026
W 53 nm 284' KLHB 221815Z 00000KT 10SM CLR 20/08 A3024
S 58 nm 165' KTME 221815Z 16008KT 10SM CLR 22/05 A3024
W 59 nm 390' KRWV 221750Z 14005KT 10SM CLR 20/07 A3025
N 62 nm 422' KPSN 221815Z VRB04KT 10SM CLR 20/06 A3022
NE 67 nm 343' KOCH 221756Z 19006KT 10SM CLR 19/05 A3027
S 67 nm 81' KSGR 221753Z 11009KT 10SM CLR 21/07 A3024
S 68 nm 46' KHOU 221753Z 10012G16KT 10SM BKN250 21/04 A3024
N 70 nm 677' KJSO 221755Z 20004KT 10SM CLR 19/04 A3027
NW 71 nm 544' KLXY 221815Z 15010G16KT 100V170 10SM CLR 20/08 A3023
S 71 nm 32' KEFD 221754Z 07009KT 10SM CLR 20/04 A3023
S 74 nm 68' KAXH 221815Z 11007G14KT 10SM CLR 21/08 A3024
S 75 nm 43' KLVJ 221753Z 10SM CLR 21/07 A3025
SW 78 nm 184' KELA 221815Z 08008KT 10SM CLR 20/07 A3023
SW 80 nm 484' KGYB 210815Z
E 80 nm 212' KJAS 221815Z 00000KT 10SM CLR 19/04 A3024
SE 81 nm 31' KBMT 221815Z 02003KT 10SM CLR 20/04 A3024
NW 87 nm 448' KCRS 221753Z 17005KT 10SM CLR 19/04 A3026
NE 91 nm 442' KRFI 210515Z 02013G18KT 5SM BR OVC006 11/10 A3014
NW 93 nm 470' KCNW 221755Z 14005KT 10SM SKC 19/05 A3025
SE 94 nm 14' KBPT 221753Z VRB06KT 10SM CLR 21/05 A3025
S 94 nm 100' KARM 221815Z 06006KT 10SM CLR 21/18 A3022
SE 96 nm 5' KGLS 221752Z 09010G19KT 10SM CLR 21/07 A3025
W 96 nm 682' KTPL 221751Z 12006KT 10SM CLR 19/06 A3025
N 96 nm 543' KTYR 221753Z 00000KT 10SM CLR 19/02 A3025
S 98 nm 25' KLBX 221753Z 10010KT 10SM CLR 21/10 A3023
NW 99 nm 516' KACT 221751Z VRB06KT 10SM CLR 19/07 A3024
NW 99 nm 591' KPWG 221756Z 16003KT 10SM CLR 19/06 A3025
TAFs for airports near UTS, sorted by distance:
N 0 nm 362' KUTS TAF KUTS 221722Z 2218/2318 17006KT P6SM FEW250
  FM230200 VRB04KT P6SM SKC
  FM231400 17007KT P6SM SKC
S 25 nm 244' KCXO TAF KCXO 221722Z 2218/2318 15008KT P6SM FEW250
  FM230200 VRB03KT P6SM FEW250
  FM231500 17007KT P6SM FEW250
W 41 nm 320' KCLL TAF KCLL 221722Z 2218/2318 14007KT P6SM FEW250
  FM222200 16007KT P6SM SKC
  FM230400 VRB04KT P6SM SKC
  FM231500 17008KT P6SM FEW050 FEW250
S 47 nm 95' KIAH TAF KIAH 221722Z 2218/2324 11010KT P6SM FEW050 SCT250
  FM230300 VRB03KT P6SM FEW250
  FM231400 16007KT P6SM FEW100
  FM231900 16010KT P6SM FEW045 SCT100
NE 52 nm 295' KLFK KLFK 221721Z 2218/2318 13005KT P6SM FEW250
  FM231500 17009KT P6SM FEW070 FEW250
S 67 nm 81' KSGR TAF KSGR 221722Z 2218/2318 12010KT P6SM FEW250
  FM230400 VRB04KT P6SM SCT250
  FM231500 16008KT P6SM SCT050
S 68 nm 46' KHOU KHOU 221722Z 2218/2318 09011KT P6SM FEW250
  FM222100 12009KT P6SM SCT250
  FM230400 VRB04KT P6SM SKC
  FM231400 16007KT P6SM FEW050 SCT100
S 71 nm 32' KEFD TAF KEFD 221200Z 2212/2318 VRB06KT 9999 SKC QNH3023INS
  BECMG 2215/2216 09010G15KT 9999 SKC QNH3011INS
  BECMG 2305/2306 VRB06KT 9999 FEW075 QNH3007INS TX22/2223Z TN13/2312Z
SE 94 nm 14' KBPT KBPT 221737Z 2218/2318 07008KT P6SM FEW250
  FM230400 00000KT P6SM FEW250
  FM231400 14006KT P6SM SKC
  FM231700 17010KT P6SM FEW190
SE 96 nm 5' KGLS TAF KGLS 221722Z 2218/2318 07011G20KT P6SM FEW050 FEW250
  FM222000 11012KT P6SM FEW250
  FM230900 16008KT P6SM SCT250
N 96 nm 543' KTYR KTYR 221721Z 2218/2318 18007KT P6SM FEW250
  FM231500 19012G18KT P6SM SCT050
S 98 nm 25' KLBX KLBX 221722Z 2218/2318 09010KT P6SM FEW050 FEW250
  FM222100 12009KT P6SM FEW050 SCT250
  FM230400 VRB03KT P6SM FEW250
  FM231500 16008KT P6SM SCT050
NW 99 nm 516' KACT KACT 221722Z 2218/2318 17011KT P6SM SCT250
  FM231500 18015G25KT P6SM BKN022

Shortcut to this page: http://wxbay.com.

Data may contain errors.